Rock Springs Sweetwater County Airport Rock Springs US
ICAO: KRKS
IATA: RKS
Category: Medium
Scheduled Services: Yes

Elevation: 6764 ft
TransAlt. 18000 ft.

Airport Communications:
ASOS:118.375
CASPER RDO:122.6
CTAF/UNICOM:122.8

KRKS Zoom In..

If you have problems with the map follow the link
https://www.worldairports.se/pages/airport.php?
ICAO=KRKS

Runways:

(A) RW 03 length 5228 ft width 75 ft
---- / hdg 32

(B) RW 09 length 10000 ft width 150 ft
---- / hdg 90

(C) RW 21 length 5228 ft width 75 ft
---- / hdg 212

(D) RW 27 length 10000 ft width 150 ft
ILS 109.30 / hdg 270

Location; KRKS
Day. 13 / Time. 19.54 Zulu
* Altimeter: 30.05
* Temperature: -02° c. -28.4°f.
* Wind from: 260° Speed 17 kn with Gusts up to 26 kn.
Dewpoint: -06° c.
Visibility: 10 Statute Miles.
Clouds: Clear (automated report).

KRKS 131954Z AUTO 26017G26KT 10SM CLR M02/M06 A3005 RMK AO2 PK WND 28028/1912 SLP197 T10171061


Wind From 260°
Speed 17 kn.

 
 
jpsmedia worldairports.se 2019   terms of use